sensor_id;sensor_type;location;lat;lon;timestamp;pressure;altitude;pressure_sealevel;temperature;humidity
9764;BME280;4921;43.214;27.936;2023-09-30T00:02:25;101078.88;;;23.22;42.38
9764;BME280;4921;43.214;27.936;2023-09-30T00:04:52;101075.97;;;23.24;42.36
9764;BME280;4921;43.214;27.936;2023-09-30T00:07:19;101073.50;;;23.22;42.67
9764;BME280;4921;43.214;27.936;2023-09-30T00:09:48;101078.47;;;23.25;42.45
9764;BME280;4921;43.214;27.936;2023-09-30T00:12:17;101080.94;;;23.27;42.72
9764;BME280;4921;43.214;27.936;2023-09-30T00:14:44;101080.94;;;23.27;42.50
9764;BME280;4921;43.214;27.936;2023-09-30T00:17:11;101067.72;;;23.25;42.50
9764;BME280;4921;43.214;27.936;2023-09-30T00:19:37;101070.41;;;23.25;42.07
9764;BME280;4921;43.214;27.936;2023-09-30T00:22:04;101066.88;;;23.25;42.14
9764;BME280;4921;43.214;27.936;2023-09-30T00:24:31;101068.75;;;23.24;42.32
9764;BME280;4921;43.214;27.936;2023-09-30T00:27:00;101073.09;;;23.25;42.30
9764;BME280;4921;43.214;27.936;2023-09-30T00:29:27;101074.13;;;23.24;42.30
9764;BME280;4921;43.214;27.936;2023-09-30T00:31:54;101076.81;;;23.24;42.58
9764;BME280;4921;43.214;27.936;2023-09-30T00:34:21;101077.81;;;23.23;43.38
9764;BME280;4921;43.214;27.936;2023-09-30T00:36:48;101079.50;;;23.24;44.59
9764;BME280;4921;43.214;27.936;2023-09-30T00:39:14;101064.19;;;23.25;45.14
9764;BME280;4921;43.214;27.936;2023-09-30T00:41:41;101078.47;;;23.25;43.70
9764;BME280;4921;43.214;27.936;2023-09-30T00:44:10;101075.78;;;23.25;43.56
9764;BME280;4921;43.214;27.936;2023-09-30T00:46:38;101072.25;;;23.25;43.71
9764;BME280;4921;43.214;27.936;2023-09-30T00:49:07;101075.97;;;23.24;43.11
9764;BME280;4921;43.214;27.936;2023-09-30T00:51:36;101076.81;;;23.24;43.39
9764;BME280;4921;43.214;27.936;2023-09-30T00:54:04;101076.19;;;23.22;42.93
9764;BME280;4921;43.214;27.936;2023-09-30T00:56:32;101073.22;;;23.17;42.87
9764;BME280;4921;43.214;27.936;2023-09-30T00:58:59;101079.81;;;23.15;43.08
9764;BME280;4921;43.214;27.936;2023-09-30T01:01:27;101072.81;;;23.14;43.16
9764;BME280;4921;43.214;27.936;2023-09-30T01:03:54;101068.44;;;23.13;42.65
9764;BME280;4921;43.214;27.936;2023-09-30T01:06:22;101072.81;;;23.14;42.44
9764;BME280;4921;43.214;27.936;2023-09-30T01:08:49;101071.06;;;23.06;42.28
9764;BME280;4921;43.214;27.936;2023-09-30T01:11:17;101079.88;;;23.00;42.58
9764;BME280;4921;43.214;27.936;2023-09-30T01:13:44;101079.88;;;23.00;43.12
9764;BME280;4921;43.214;27.936;2023-09-30T01:16:13;101073.25;;;22.96;42.67
9764;BME280;4921;43.214;27.936;2023-09-30T01:18:41;101081.28;;;22.96;43.38
9764;BME280;4921;43.214;27.936;2023-09-30T01:21:09;101076.09;;;22.95;43.70
9764;BME280;4921;43.214;27.936;2023-09-30T01:23:38;101081.03;;;22.91;43.45
9764;BME280;4921;43.214;27.936;2023-09-30T01:26:08;101084.06;;;22.88;43.28
9764;BME280;4921;43.214;27.936;2023-09-30T01:28:35;101084.66;;;22.84;42.73
9764;BME280;4921;43.214;27.936;2023-09-30T01:31:02;101082.16;;;22.82;43.03
9764;BME280;4921;43.214;27.936;2023-09-30T01:33:29;101089.56;;;22.80;43.07
9764;BME280;4921;43.214;27.936;2023-09-30T01:35:57;101078.84;;;22.80;43.81
9764;BME280;4921;43.214;27.936;2023-09-30T01:38:25;101073.22;;;22.75;43.44
9764;BME280;4921;43.214;27.936;2023-09-30T01:40:53;101079.88;;;22.79;43.56
9764;BME280;4921;43.214;27.936;2023-09-30T01:43:20;101081.91;;;22.77;43.80
9764;BME280;4921;43.214;27.936;2023-09-30T01:45:47;101093.00;;;22.74;43.96
9764;BME280;4921;43.214;27.936;2023-09-30T01:48:14;101087.00;;;22.72;43.76
9764;BME280;4921;43.214;27.936;2023-09-30T01:50:41;101087.38;;;22.69;43.94
9764;BME280;4921;43.214;27.936;2023-09-30T01:53:08;101088.59;;;22.66;44.78
9764;BME280;4921;43.214;27.936;2023-09-30T01:55:35;101087.38;;;22.69;44.93
9764;BME280;4921;43.214;27.936;2023-09-30T01:58:04;101079.25;;;22.62;44.54
9764;BME280;4921;43.214;27.936;2023-09-30T02:00:31;101085.84;;;22.60;44.96
9764;BME280;4921;43.214;27.936;2023-09-30T02:03:00;101084.50;;;22.56;45.52
9764;BME280;4921;43.214;27.936;2023-09-30T02:05:28;101087.78;;;22.51;45.47
9764;BME280;4921;43.214;27.936;2023-09-30T02:08:03;101096.81;;;22.50;45.29
9764;BME280;4921;43.214;27.936;2023-09-30T02:10:31;101085.66;;;22.47;45.76
9764;BME280;4921;43.214;27.936;2023-09-30T02:12:59;101090.28;;;22.38;46.20
9764;BME280;4921;43.214;27.936;2023-09-30T02:15:28;101082.16;;;22.32;46.52
9764;BME280;4921;43.214;27.936;2023-09-30T02:17:54;101079.28;;;22.33;46.78
9764;BME280;4921;43.214;27.936;2023-09-30T02:20:21;101086.13;;;22.36;47.19
9764;BME280;4921;43.214;27.936;2023-09-30T02:22:51;101083.16;;;22.31;47.03
9764;BME280;4921;43.214;27.936;2023-09-30T02:25:19;101076.81;;;22.32;47.03
9764;BME280;4921;43.214;27.936;2023-09-30T02:27:46;101078.66;;;22.31;47.68
9764;BME280;4921;43.214;27.936;2023-09-30T02:30:13;101085.56;;;22.26;47.70
9764;BME280;4921;43.214;27.936;2023-09-30T02:32:43;101075.44;;;22.21;47.94
9764;BME280;4921;43.214;27.936;2023-09-30T02:35:11;101086.78;;;22.23;48.31
9764;BME280;4921;43.214;27.936;2023-09-30T02:37:39;101081.25;;;22.25;48.30
9764;BME280;4921;43.214;27.936;2023-09-30T02:40:07;101085.13;;;22.22;48.27
9764;BME280;4921;43.214;27.936;2023-09-30T02:42:36;101077.53;;;22.26;48.37
9764;BME280;4921;43.214;27.936;2023-09-30T02:45:04;101083.28;;;22.23;48.33
9764;BME280;4921;43.214;27.936;2023-09-30T02:47:30;101078.13;;;22.21;48.60
9764;BME280;4921;43.214;27.936;2023-09-30T02:49:59;101071.91;;;22.21;48.85
9764;BME280;4921;43.214;27.936;2023-09-30T02:52:26;101070.78;;;22.15;48.66
9764;BME280;4921;43.214;27.936;2023-09-30T02:54:54;101070.16;;;22.13;48.45
9764;BME280;4921;43.214;27.936;2023-09-30T02:57:22;101073.03;;;22.12;48.85
9764;BME280;4921;43.214;27.936;2023-09-30T02:59:49;101065.19;;;22.10;48.85
9764;BME280;4921;43.214;27.936;2023-09-30T03:02:17;101073.03;;;22.12;48.85
9764;BME280;4921;43.214;27.936;2023-09-30T03:04:44;101055.28;;;21.96;48.75
9764;BME280;4921;43.214;27.936;2023-09-30T03:07:13;101070.25;;;22.05;49.77
9764;BME280;4921;43.214;27.936;2023-09-30T03:09:40;101066.94;;;22.03;50.60
9764;BME280;4921;43.214;27.936;2023-09-30T03:12:13;101069.59;;;22.03;50.27
9764;BME280;4921;43.214;27.936;2023-09-30T03:14:40;101076.53;;;21.97;50.57
9764;BME280;4921;43.214;27.936;2023-09-30T03:17:08;101073.19;;;21.95;50.56
9764;BME280;4921;43.214;27.936;2023-09-30T03:19:37;101069.22;;;21.91;50.20
9764;BME280;4921;43.214;27.936;2023-09-30T03:22:05;101072.44;;;21.87;50.58
9764;BME280;4921;43.214;27.936;2023-09-30T03:24:38;101071.75;;;21.93;50.39
9764;BME280;4921;43.214;27.936;2023-09-30T03:27:05;101067.94;;;21.87;50.09
9764;BME280;4921;43.214;27.936;2023-09-30T03:29:33;101071.44;;;21.88;50.66
9764;BME280;4921;43.214;27.936;2023-09-30T03:32:01;101071.66;;;21.86;50.80
9764;BME280;4921;43.214;27.936;2023-09-30T03:34:28;101066.28;;;21.86;50.56
9764;BME280;4921;43.214;27.936;2023-09-30T03:36:55;101064.97;;;21.82;50.88
9764;BME280;4921;43.214;27.936;2023-09-30T03:39:24;101065.44;;;21.86;51.40
9764;BME280;4921;43.214;27.936;2023-09-30T03:41:55;101069.31;;;21.83;51.51
9764;BME280;4921;43.214;27.936;2023-09-30T03:44:23;101063.78;;;21.85;51.35
9764;BME280;4921;43.214;27.936;2023-09-30T03:46:51;101058.25;;;21.86;51.13
9764;BME280;4921;43.214;27.936;2023-09-30T03:49:18;101063.41;;;21.88;51.19
9764;BME280;4921;43.214;27.936;2023-09-30T03:51:46;101064.97;;;21.82;51.66
9764;BME280;4921;43.214;27.936;2023-09-30T03:54:16;101064.81;;;21.84;51.67
9764;BME280;4921;43.214;27.936;2023-09-30T03:56:43;101065.25;;;21.87;51.77
9764;BME280;4921;43.214;27.936;2023-09-30T03:59:11;101066.94;;;21.88;51.65
9764;BME280;4921;43.214;27.936;2023-09-30T04:01:38;101069.78;;;21.87;52.20
9764;BME280;4921;43.214;27.936;2023-09-30T04:04:06;101060.28;;;21.84;52.80
9764;BME280;4921;43.214;27.936;2023-09-30T04:06:35;101058.63;;;21.83;52.50
9764;BME280;4921;43.214;27.936;2023-09-30T04:09:04;101065.81;;;21.83;52.71
9764;BME280;4921;43.214;27.936;2023-09-30T04:11:35;101066.66;;;21.83;52.93
9764;BME280;4921;43.214;27.936;2023-09-30T04:14:03;101061.75;;;21.87;54.78
9764;BME280;4921;43.214;27.936;2023-09-30T04:16:32;101064.34;;;21.95;61.36
9764;BME280;4921;43.214;27.936;2023-09-30T04:18:59;101067.19;;;21.93;58.35
9764;BME280;4921;43.214;27.936;2023-09-30T04:21:25;101063.59;;;22.01;60.47
9764;BME280;4921;43.214;27.936;2023-09-30T04:23:54;101059.09;;;22.02;58.78
9764;BME280;4921;43.214;27.936;2023-09-30T04:26:21;101060.53;;;22.04;60.59
9764;BME280;4921;43.214;27.936;2023-09-30T04:28:48;101056.50;;;22.08;58.75
9764;BME280;4921;43.214;27.936;2023-09-30T04:31:15;101056.09;;;22.11;57.62
9764;BME280;4921;43.214;27.936;2023-09-30T04:33:45;101054.91;;;22.14;58.37
9764;BME280;4921;43.214;27.936;2023-09-30T04:36:12;101053.91;;;22.15;57.52
9764;BME280;4921;43.214;27.936;2023-09-30T04:38:38;101066.91;;;22.18;57.06
9764;BME280;4921;43.214;27.936;2023-09-30T04:41:05;101074.50;;;22.14;55.58
9764;BME280;4921;43.214;27.936;2023-09-30T04:43:33;101066.06;;;22.17;56.13
9764;BME280;4921;43.214;27.936;2023-09-30T04:46:00;101076.00;;;22.17;55.33
9764;BME280;4921;43.214;27.936;2023-09-30T04:48:27;101078.66;;;22.17;55.92
9764;BME280;4921;43.214;27.936;2023-09-30T04:50:56;101073.66;;;22.14;56.46
9764;BME280;4921;43.214;27.936;2023-09-30T04:53:23;101077.28;;;22.21;57.12
9764;BME280;4921;43.214;27.936;2023-09-30T04:55:50;101077.91;;;22.23;57.65
9764;BME280;4921;43.214;27.936;2023-09-30T04:58:17;101075.50;;;22.28;56.80
9764;BME280;4921;43.214;27.936;2023-09-30T05:00:44;101083.38;;;22.29;55.49
9764;BME280;4921;43.214;27.936;2023-09-30T05:03:11;101089.16;;;22.33;55.49
9764;BME280;4921;43.214;27.936;2023-09-30T05:05:37;101095.16;;;22.35;56.96
9764;BME280;4921;43.214;27.936;2023-09-30T05:08:06;101086.22;;;22.28;55.61
9764;BME280;4921;43.214;27.936;2023-09-30T05:10:33;101084.66;;;22.33;57.07
9764;BME280;4921;43.214;27.936;2023-09-30T05:13:00;101092.50;;;22.35;57.21
9764;BME280;4921;43.214;27.936;2023-09-30T05:15:27;101077.97;;;22.44;57.17
9764;BME280;4921;43.214;27.936;2023-09-30T05:17:57;101087.09;;;22.49;57.73
9764;BME280;4921;43.214;27.936;2023-09-30T05:20:24;101084.69;;;22.54;57.93
9764;BME280;4921;43.214;27.936;2023-09-30T05:22:51;101087.81;;;22.58;56.33
9764;BME280;4921;43.214;27.936;2023-09-30T05:25:19;101090.38;;;22.59;56.69
9764;BME280;4921;43.214;27.936;2023-09-30T05:27:51;101091.22;;;22.60;57.00
9764;BME280;4921;43.214;27.936;2023-09-30T05:30:18;101101.53;;;22.63;57.50
9764;BME280;4921;43.214;27.936;2023-09-30T05:32:45;101090.25;;;22.67;56.92
9764;BME280;4921;43.214;27.936;2023-09-30T05:35:12;101090.69;;;22.71;57.21
9764;BME280;4921;43.214;27.936;2023-09-30T05:37:42;101097.09;;;22.70;56.93
9764;BME280;4921;43.214;27.936;2023-09-30T05:40:11;101098.19;;;22.75;58.34
9764;BME280;4921;43.214;27.936;2023-09-30T05:42:47;101099.13;;;22.68;59.58
9764;BME280;4921;43.214;27.936;2023-09-30T05:45:15;101098.19;;;22.75;59.35
9764;BME280;4921;43.214;27.936;2023-09-30T05:47:42;101090.88;;;22.69;60.20
9764;BME280;4921;43.214;27.936;2023-09-30T05:50:10;101092.09;;;22.82;61.13
9764;BME280;4921;43.214;27.936;2023-09-30T05:52:40;101106.13;;;22.84;61.59
9764;BME280;4921;43.214;27.936;2023-09-30T05:55:07;101101.41;;;22.86;62.77
9764;BME280;4921;43.214;27.936;2023-09-30T05:57:34;101107.22;;;22.89;62.20
9764;BME280;4921;43.214;27.936;2023-09-30T06:00:04;101099.81;;;22.91;62.89
9764;BME280;4921;43.214;27.936;2023-09-30T06:02:37;101105.59;;;22.95;63.00
9764;BME280;4921;43.214;27.936;2023-09-30T06:05:04;101104.22;;;22.99;63.17
9764;BME280;4921;43.214;27.936;2023-09-30T06:07:31;101105.03;;;22.99;62.42
9764;BME280;4921;43.214;27.936;2023-09-30T06:09:59;101102.81;;;23.03;62.50
9764;BME280;4921;43.214;27.936;2023-09-30T06:12:28;101093.75;;;23.04;62.23
9764;BME280;4921;43.214;27.936;2023-09-30T06:14:55;101097.63;;;23.01;61.72
9764;BME280;4921;43.214;27.936;2023-09-30T06:17:25;101103.31;;;23.13;61.85
9764;BME280;4921;43.214;27.936;2023-09-30T06:19:52;101103.06;;;23.08;63.26
9764;BME280;4921;43.214;27.936;2023-09-30T06:22:19;101108.25;;;23.09;64.17
9764;BME280;4921;43.214;27.936;2023-09-30T06:24:46;101100.06;;;23.17;63.37
9764;BME280;4921;43.214;27.936;2023-09-30T06:27:14;101089.59;;;23.22;63.18
9764;BME280;4921;43.214;27.936;2023-09-30T06:29:41;101091.88;;;23.25;61.85
9764;BME280;4921;43.214;27.936;2023-09-30T06:32:08;101092.91;;;23.24;62.09
9764;BME280;4921;43.214;27.936;2023-09-30T06:34:36;101088.81;;;23.28;62.40
9764;BME280;4921;43.214;27.936;2023-09-30T06:37:03;101088.28;;;23.33;62.28
9764;BME280;4921;43.214;27.936;2023-09-30T06:39:30;101102.41;;;23.41;62.04
9764;BME280;4921;43.214;27.936;2023-09-30T06:41:56;101097.88;;;23.48;62.05
9764;BME280;4921;43.214;27.936;2023-09-30T06:44:23;101105.38;;;23.53;61.21
9764;BME280;4921;43.214;27.936;2023-09-30T06:46:51;101092.34;;;23.50;60.47
9764;BME280;4921;43.214;27.936;2023-09-30T06:49:20;101101.53;;;23.62;61.08
9764;BME280;4921;43.214;27.936;2023-09-30T06:51:48;101089.81;;;23.70;59.25
9764;BME280;4921;43.214;27.936;2023-09-30T06:54:15;101101.25;;;23.78;58.84
9764;BME280;4921;43.214;27.936;2023-09-30T06:56:42;101096.31;;;23.82;58.86
9764;BME280;4921;43.214;27.936;2023-09-30T06:59:09;101105.56;;;23.79;58.26
9764;BME280;4921;43.214;27.936;2023-09-30T07:01:36;101111.41;;;23.83;57.97
9764;BME280;4921;43.214;27.936;2023-09-30T07:04:03;101111.25;;;23.91;57.68
9764;BME280;4921;43.214;27.936;2023-09-30T07:06:30;101108.16;;;23.94;57.16
9764;BME280;4921;43.214;27.936;2023-09-30T07:08:58;101112.56;;;24.01;56.49
9764;BME280;4921;43.214;27.936;2023-09-30T07:11:28;101105.34;;;24.02;57.57
9764;BME280;4921;43.214;27.936;2023-09-30T07:13:58;101101.25;;;24.06;57.55
9764;BME280;4921;43.214;27.936;2023-09-30T07:16:25;101101.66;;;24.09;57.89
9764;BME280;4921;43.214;27.936;2023-09-30T07:18:51;101098.19;;;24.15;57.39
9764;BME280;4921;43.214;27.936;2023-09-30T07:21:18;101108.16;;;24.21;57.55
9764;BME280;4921;43.214;27.936;2023-09-30T07:23:45;101113.34;;;24.23;56.12
9764;BME280;4921;43.214;27.936;2023-09-30T07:26:14;101106.53;;;24.27;54.55
9764;BME280;4921;43.214;27.936;2023-09-30T07:28:41;101100.97;;;24.35;54.62
9764;BME280;4921;43.214;27.936;2023-09-30T07:31:08;101101.44;;;24.39;54.07
9764;BME280;4921;43.214;27.936;2023-09-30T07:33:35;101103.09;;;24.46;54.12
9764;BME280;4921;43.214;27.936;2023-09-30T07:36:02;101102.13;;;24.54;53.85
9764;BME280;4921;43.214;27.936;2023-09-30T07:38:29;101100.06;;;24.62;54.94
9764;BME280;4921;43.214;27.936;2023-09-30T07:40:56;101091.78;;;24.64;53.04
9764;BME280;4921;43.214;27.936;2023-09-30T07:43:24;101106.16;;;24.77;51.41
9764;BME280;4921;43.214;27.936;2023-09-30T07:45:51;101111.97;;;24.87;50.45
9764;BME280;4921;43.214;27.936;2023-09-30T07:48:18;101100.22;;;24.95;51.41
9764;BME280;4921;43.214;27.936;2023-09-30T07:50:44;101109.09;;;25.02;50.10
9764;BME280;4921;43.214;27.936;2023-09-30T07:53:12;101104.78;;;25.08;48.83
9764;BME280;4921;43.214;27.936;2023-09-30T07:55:39;101107.06;;;25.11;48.73
9764;BME280;4921;43.214;27.936;2023-09-30T07:58:06;101104.59;;;25.16;48.15
9764;BME280;4921;43.214;27.936;2023-09-30T08:00:35;101102.13;;;25.21;49.54
9764;BME280;4921;43.214;27.936;2023-09-30T08:03:02;101097.75;;;25.26;50.62
9764;BME280;4921;43.214;27.936;2023-09-30T08:05:38;101098.59;;;25.33;53.23
9764;BME280;4921;43.214;27.936;2023-09-30T08:08:08;101103.78;;;25.35;49.66
9764;BME280;4921;43.214;27.936;2023-09-30T08:10:35;101101.09;;;25.41;48.04
9764;BME280;4921;43.214;27.936;2023-09-30T08:13:03;101100.25;;;25.41;48.63
9764;BME280;4921;43.214;27.936;2023-09-30T08:15:30;101102.94;;;25.41;47.79
9764;BME280;4921;43.214;27.936;2023-09-30T08:17:58;101094.72;;;25.42;48.66
9764;BME280;4921;43.214;27.936;2023-09-30T08:20:25;101101.47;;;25.38;46.47
9764;BME280;4921;43.214;27.936;2023-09-30T08:22:52;101110.84;;;25.36;46.52
9764;BME280;4921;43.214;27.936;2023-09-30T08:25:19;101102.94;;;25.41;46.43
9764;BME280;4921;43.214;27.936;2023-09-30T08:27:46;101106.28;;;25.49;46.62
9764;BME280;4921;43.214;27.936;2023-09-30T08:30:15;101094.91;;;25.54;44.71
9764;BME280;4921;43.214;27.936;2023-09-30T08:32:42;101100.09;;;25.55;44.77
9764;BME280;4921;43.214;27.936;2023-09-30T08:35:11;101101.94;;;25.61;46.54
9764;BME280;4921;43.214;27.936;2023-09-30T08:37:40;101098.03;;;25.64;44.04
9764;BME280;4921;43.214;27.936;2023-09-30T08:40:07;101104.03;;;25.66;43.29
9764;BME280;4921;43.214;27.936;2023-09-30T08:42:38;101100.91;;;25.69;42.84
9764;BME280;4921;43.214;27.936;2023-09-30T08:45:08;101099.25;;;25.75;42.63
9764;BME280;4921;43.214;27.936;2023-09-30T08:47:36;101094.66;;;25.82;42.67
9764;BME280;4921;43.214;27.936;2023-09-30T08:50:06;101093.22;;;25.86;43.16
9764;BME280;4921;43.214;27.936;2023-09-30T08:52:38;101085.53;;;25.96;42.24
9764;BME280;4921;43.214;27.936;2023-09-30T08:55:07;101100.47;;;25.98;42.29
9764;BME280;4921;43.214;27.936;2023-09-30T08:57:37;101092.53;;;26.03;42.01
9764;BME280;4921;43.214;27.936;2023-09-30T09:00:06;101099.41;;;26.12;41.74
9764;BME280;4921;43.214;27.936;2023-09-30T09:02:34;101106.00;;;26.23;40.81
9764;BME280;4921;43.214;27.936;2023-09-30T09:05:01;101088.81;;;26.24;41.47
9764;BME280;4921;43.214;27.936;2023-09-30T09:07:29;101085.06;;;26.25;40.91
9764;BME280;4921;43.214;27.936;2023-09-30T09:10:07;101086.91;;;26.31;40.90
9764;BME280;4921;43.214;27.936;2023-09-30T09:12:36;101093.94;;;26.38;40.15
9764;BME280;4921;43.214;27.936;2023-09-30T09:15:05;101084.59;;;26.41;40.38
9764;BME280;4921;43.214;27.936;2023-09-30T09:17:40;101094.16;;;26.37;40.89
9764;BME280;4921;43.214;27.936;2023-09-30T09:20:08;101089.97;;;26.48;40.24
9764;BME280;4921;43.214;27.936;2023-09-30T09:22:40;101080.00;;;26.48;40.28
9764;BME280;4921;43.214;27.936;2023-09-30T09:25:10;101085.38;;;26.55;40.26
9764;BME280;4921;43.214;27.936;2023-09-30T09:27:37;101066.63;;;26.60;40.23
9764;BME280;4921;43.214;27.936;2023-09-30T09:30:19;101077.59;;;26.71;39.75
9764;BME280;4921;43.214;27.936;2023-09-30T09:33:00;101081.78;;;26.74;40.09
9764;BME280;4921;43.214;27.936;2023-09-30T09:35:30;101077.38;;;26.79;39.73
9764;BME280;4921;43.214;27.936;2023-09-30T09:37:59;101076.50;;;26.85;39.12
9764;BME280;4921;43.214;27.936;2023-09-30T09:40:29;101074.59;;;26.92;39.50
9764;BME280;4921;43.214;27.936;2023-09-30T09:42:58;101080.38;;;26.96;39.83
9764;BME280;4921;43.214;27.936;2023-09-30T09:45:26;101081.44;;;26.95;39.96
9764;BME280;4921;43.214;27.936;2023-09-30T09:47:54;101076.00;;;27.01;39.23
9764;BME280;4921;43.214;27.936;2023-09-30T09:50:22;101056.56;;;27.11;39.40
9764;BME280;4921;43.214;27.936;2023-09-30T09:52:51;101075.50;;;27.11;39.49
9764;BME280;4921;43.214;27.936;2023-09-30T09:55:22;101070.50;;;27.14;39.35
9764;BME280;4921;43.214;27.936;2023-09-30T09:57:51;101068.72;;;27.27;39.75
9764;BME280;4921;43.214;27.936;2023-09-30T10:00:19;101060.03;;;27.25;39.63
9764;BME280;4921;43.214;27.936;2023-09-30T10:02:46;101068.13;;;27.25;39.35
9764;BME280;4921;43.214;27.936;2023-09-30T10:05:15;101057.69;;;27.28;39.31
9764;BME280;4921;43.214;27.936;2023-09-30T10:07:45;101071.59;;;27.32;39.63
9764;BME280;4921;43.214;27.936;2023-09-30T10:10:17;101059.53;;;27.34;40.12
9764;BME280;4921;43.214;27.936;2023-09-30T10:12:45;101060.34;;;27.35;40.16
9764;BME280;4921;43.214;27.936;2023-09-30T10:15:37;101052.66;;;27.38;39.93
9764;BME280;4921;43.214;27.936;2023-09-30T10:18:06;101055.81;;;27.35;40.87
9764;BME280;4921;43.214;27.936;2023-09-30T10:20:36;101065.34;;;27.38;41.03
9764;BME280;4921;43.214;27.936;2023-09-30T10:23:21;101054.53;;;27.38;40.74
9764;BME280;4921;43.214;27.936;2023-09-30T10:25:50;101053.53;;;27.32;39.59
9764;BME280;4921;43.214;27.936;2023-09-30T10:28:39;101050.59;;;27.34;38.17
9764;BME280;4921;43.214;27.936;2023-09-30T10:31:12;101059.34;;;27.36;37.96
9764;BME280;4921;43.214;27.936;2023-09-30T10:36:44;101061.19;;;27.35;38.83
9764;BME280;4921;43.214;27.936;2023-09-30T10:39:13;101051.22;;;27.36;38.69
9764;BME280;4921;43.214;27.936;2023-09-30T10:41:49;101040.38;;;27.42;38.36
9764;BME280;4921;43.214;27.936;2023-09-30T10:44:35;101049.03;;;27.51;38.99
9764;BME280;4921;43.214;27.936;2023-09-30T10:47:35;101051.88;;;27.56;38.36
9764;BME280;4921;43.214;27.936;2023-09-30T10:50:03;101047.47;;;27.61;38.59
9764;BME280;4921;43.214;27.936;2023-09-30T10:52:31;101039.28;;;27.68;38.93
9764;BME280;4921;43.214;27.936;2023-09-30T10:55:03;101044.69;;;27.68;38.87
9764;BME280;4921;43.214;27.936;2023-09-30T10:57:32;101051.31;;;27.72;39.65
9764;BME280;4921;43.214;27.936;2023-09-30T11:00:09;101033.03;;;27.67;40.88
9764;BME280;4921;43.214;27.936;2023-09-30T11:02:49;101036.53;;;27.50;41.70
9764;BME280;4921;43.214;27.936;2023-09-30T11:05:18;101019.22;;;27.57;41.47
9764;BME280;4921;43.214;27.936;2023-09-30T11:07:48;101030.41;;;27.61;41.29
9764;BME280;4921;43.214;27.936;2023-09-30T11:10:17;101034.84;;;27.55;44.37
9764;BME280;4921;43.214;27.936;2023-09-30T11:12:56;101035.09;;;27.23;53.98
9764;BME280;4921;43.214;27.936;2023-09-30T11:15:23;101025.44;;;27.33;54.49
9764;BME280;4921;43.214;27.936;2023-09-30T11:17:52;101029.31;;;27.44;55.60
9764;BME280;4921;43.214;27.936;2023-09-30T11:20:19;101023.09;;;27.43;56.70
9764;BME280;4921;43.214;27.936;2023-09-30T11:23:05;101022.66;;;27.22;61.32
9764;BME280;4921;43.214;27.936;2023-09-30T11:25:35;101033.59;;;27.27;60.59
9764;BME280;4921;43.214;27.936;2023-09-30T11:28:13;101021.97;;;27.26;59.62
9764;BME280;4921;43.214;27.936;2023-09-30T11:30:56;101017.16;;;27.28;53.47
9764;BME280;4921;43.214;27.936;2023-09-30T11:33:25;101026.94;;;27.29;62.09
9764;BME280;4921;43.214;27.936;2023-09-30T11:36:01;101018.25;;;26.96;73.05
9764;BME280;4921;43.214;27.936;2023-09-30T11:38:28;101017.97;;;26.79;75.94
9764;BME280;4921;43.214;27.936;2023-09-30T11:40:59;101023.97;;;26.81;80.92
9764;BME280;4921;43.214;27.936;2023-09-30T11:43:27;101023.00;;;26.76;84.11
9764;BME280;4921;43.214;27.936;2023-09-30T11:46:04;101008.91;;;26.98;83.42
9764;BME280;4921;43.214;27.936;2023-09-30T11:48:32;101010.84;;;26.91;83.66
9764;BME280;4921;43.214;27.936;2023-09-30T11:50:59;101012.22;;;27.00;79.84
9764;BME280;4921;43.214;27.936;2023-09-30T11:53:28;101005.13;;;27.06;80.30
9764;BME280;4921;43.214;27.936;2023-09-30T11:55:56;101000.66;;;26.93;85.91
9764;BME280;4921;43.214;27.936;2023-09-30T11:58:25;101015.28;;;26.79;90.49
9764;BME280;4921;43.214;27.936;2023-09-30T12:00:57;101015.00;;;26.56;93.63
9764;BME280;4921;43.214;27.936;2023-09-30T12:03:25;101007.84;;;26.68;92.45
9764;BME280;4921;43.214;27.936;2023-09-30T12:05:54;101011.75;;;26.79;91.40
9764;BME280;4921;43.214;27.936;2023-09-30T12:08:21;101003.06;;;26.70;93.55
9764;BME280;4921;43.214;27.936;2023-09-30T12:10:49;100998.94;;;26.30;100.00
9764;BME280;4921;43.214;27.936;2023-09-30T12:13:16;101001.19;;;26.39;100.00
9764;BME280;4921;43.214;27.936;2023-09-30T12:15:44;100999.28;;;26.40;100.00
9764;BME280;4921;43.214;27.936;2023-09-30T12:18:11;100999.44;;;26.52;100.00
9764;BME280;4921;43.214;27.936;2023-09-30T12:20:42;100989.94;;;26.42;100.00
9764;BME280;4921;43.214;27.936;2023-09-30T12:23:11;100992.88;;;26.41;100.00
9764;BME280;4921;43.214;27.936;2023-09-30T12:25:38;100992.78;;;26.16;100.00
9764;BME280;4921;43.214;27.936;2023-09-30T12:28:05;100995.00;;;26.32;100.00
9764;BME280;4921;43.214;27.936;2023-09-30T12:30:31;100983.41;;;26.25;100.00
9764;BME280;4921;43.214;27.936;2023-09-30T12:32:58;100986.47;;;26.29;91.60
9764;BME280;4921;43.214;27.936;2023-09-30T12:35:26;100977.84;;;26.52;89.40
9764;BME280;4921;43.214;27.936;2023-09-30T12:37:53;100985.88;;;26.65;82.33
9764;BME280;4921;43.214;27.936;2023-09-30T12:40:21;100968.84;;;26.64;63.75
9764;BME280;4921;43.214;27.936;2023-09-30T12:42:49;100972.50;;;26.45;70.21
9764;BME280;4921;43.214;27.936;2023-09-30T12:45:16;100964.31;;;26.58;70.19
9764;BME280;4921;43.214;27.936;2023-09-30T12:47:43;100972.56;;;26.70;65.77
9764;BME280;4921;43.214;27.936;2023-09-30T12:50:12;100962.63;;;26.64;56.90
9764;BME280;4921;43.214;27.936;2023-09-30T12:52:39;100961.53;;;26.71;53.90
9764;BME280;4921;43.214;27.936;2023-09-30T12:55:06;100960.91;;;26.76;52.14
9764;BME280;4921;43.214;27.936;2023-09-30T12:57:34;100957.34;;;26.82;49.49
9764;BME280;4921;43.214;27.936;2023-09-30T13:00:02;100964.13;;;26.91;48.86
9764;BME280;4921;43.214;27.936;2023-09-30T13:02:30;100945.81;;;26.93;48.65
9764;BME280;4921;43.214;27.936;2023-09-30T13:04:58;100957.34;;;27.06;49.64
9764;BME280;4921;43.214;27.936;2023-09-30T13:07:25;100963.94;;;27.10;49.85
9764;BME280;4921;43.214;27.936;2023-09-30T13:09:52;100961.78;;;27.19;49.63
9764;BME280;4921;43.214;27.936;2023-09-30T13:12:19;100952.84;;;27.18;48.52